createdAt,value
2019-02-17T00:01:18.708Z,56.27
2019-02-17T00:03:47.481Z,28.40
2019-02-17T00:06:16.299Z,21.57
2019-02-17T00:08:45.090Z,21.37
2019-02-17T00:11:13.898Z,23.70
2019-02-17T00:13:42.684Z,51.57
2019-02-17T00:16:11.495Z,38.67
2019-02-17T00:18:40.284Z,33.23
2019-02-17T00:21:09.086Z,18.43
2019-02-17T00:23:37.864Z,36.73
2019-02-17T00:26:06.740Z,16.82
2019-02-17T00:28:35.539Z,19.53
2019-02-17T00:31:04.472Z,24.43
2019-02-17T00:33:33.335Z,17.60
2019-02-17T00:36:02.116Z,13.50
2019-02-17T00:38:30.902Z,18.70
2019-02-17T00:40:59.712Z,15.13
2019-02-17T00:43:28.576Z,17.70
2019-02-17T00:45:57.368Z,19.92
2019-02-17T00:48:26.599Z,22.10
2019-02-17T00:50:55.560Z,20.30
2019-02-17T00:53:24.435Z,21.17
2019-02-17T00:55:53.296Z,24.27
2019-02-17T00:58:22.121Z,18.70
2019-02-17T01:00:50.965Z,26.65
2019-02-17T01:03:19.778Z,22.00
2019-02-17T01:05:48.561Z,24.10
2019-02-17T01:08:17.412Z,18.67
2019-02-17T01:10:46.303Z,18.15
2019-02-17T01:13:15.117Z,19.17
2019-02-17T01:15:43.891Z,18.13
2019-02-17T01:18:12.709Z,22.67
2019-02-17T01:20:41.552Z,26.30
2019-02-17T01:23:10.415Z,17.33
2019-02-17T01:25:39.280Z,16.40
2019-02-17T01:28:08.142Z,23.87
2019-02-17T01:30:36.982Z,16.80
2019-02-17T01:33:05.924Z,22.73
2019-02-17T01:35:34.739Z,20.60
2019-02-17T01:38:03.598Z,18.63
2019-02-17T01:40:32.392Z,17.97
2019-02-17T01:43:01.191Z,24.50
2019-02-17T01:45:30.130Z,21.77
2019-02-17T01:47:58.932Z,22.37
2019-02-17T01:50:28.734Z,22.50
2019-02-17T01:52:57.537Z,21.12
2019-02-17T01:55:26.335Z,23.93
2019-02-17T01:57:55.147Z,21.10
2019-02-17T02:00:24.105Z,22.50
2019-02-17T02:02:52.904Z,22.45
2019-02-17T02:05:21.873Z,20.53
2019-02-17T02:07:50.751Z,23.87
2019-02-17T02:10:19.668Z,25.53
2019-02-17T02:12:48.579Z,19.67
2019-02-17T02:15:17.447Z,21.57
2019-02-17T02:17:46.338Z,21.57
2019-02-17T02:20:15.319Z,18.73
2019-02-17T02:22:44.176Z,23.43
2019-02-17T02:25:13.002Z,28.23
2019-02-17T02:27:41.798Z,26.20
2019-02-17T02:30:11.833Z,17.77
2019-02-17T02:32:40.770Z,25.07
2019-02-17T02:35:09.722Z,15.17
2019-02-17T02:37:38.507Z,24.02
2019-02-17T02:40:07.482Z,24.63
2019-02-17T02:42:36.282Z,20.32
2019-02-17T02:45:05.768Z,24.45
2019-02-17T02:47:34.551Z,25.63
2019-02-17T02:50:03.448Z,19.70
2019-02-17T02:52:32.263Z,20.10
2019-02-17T02:55:01.087Z,19.70
2019-02-17T02:57:29.900Z,27.27
2019-02-17T02:59:58.813Z,19.47
2019-02-17T03:02:27.604Z,19.63
2019-02-17T03:04:56.410Z,21.50
2019-02-17T03:07:25.289Z,21.20
2019-02-17T03:09:54.097Z,27.47
2019-02-17T03:12:22.978Z,24.37
2019-02-17T03:14:51.866Z,26.00
2019-02-17T03:17:20.674Z,19.98
2019-02-17T03:19:49.556Z,20.80
2019-02-17T03:22:18.347Z,21.00
2019-02-17T03:24:47.253Z,19.63
2019-02-17T03:27:16.016Z,23.13
2019-02-17T03:29:44.840Z,25.70
2019-02-17T03:32:13.635Z,27.67
2019-02-17T03:34:42.519Z,29.63
2019-02-17T03:37:11.316Z,18.52
2019-02-17T03:39:40.340Z,32.10
2019-02-17T03:42:09.214Z,32.97
2019-02-17T03:44:38.281Z,19.40
2019-02-17T03:47:07.077Z,18.85
2019-02-17T03:49:36.030Z,24.87
2019-02-17T03:52:04.923Z,24.97
2019-02-17T03:54:33.803Z,28.13
2019-02-17T03:57:03.379Z,24.20
2019-02-17T03:59:32.205Z,22.93
2019-02-17T04:02:01.015Z,16.27
2019-02-17T04:04:29.808Z,20.57
2019-02-17T04:06:58.633Z,22.70
2019-02-17T04:09:27.524Z,16.37
2019-02-17T04:11:56.351Z,29.73
2019-02-17T04:14:25.233Z,17.20
2019-02-17T04:16:54.116Z,18.57
2019-02-17T04:19:22.921Z,17.93
2019-02-17T04:21:51.723Z,18.33
2019-02-17T04:24:20.517Z,16.35
2019-02-17T04:26:49.390Z,14.85
2019-02-17T04:29:18.186Z,21.77
2019-02-17T04:31:47.070Z,19.33
2019-02-17T04:34:15.948Z,28.43
2019-02-17T04:36:44.758Z,18.32
2019-02-17T04:39:13.729Z,27.70
2019-02-17T04:41:42.594Z,26.00
2019-02-17T04:44:11.382Z,25.20
2019-02-17T04:46:40.185Z,19.50
2019-02-17T04:49:08.990Z,15.10
2019-02-17T04:51:37.795Z,20.77
2019-02-17T04:54:06.592Z,22.30
2019-02-17T04:56:35.807Z,19.65
2019-02-17T04:59:04.730Z,20.90
2019-02-17T05:01:33.729Z,20.37
2019-02-17T05:04:02.668Z,19.30
2019-02-17T05:06:31.527Z,14.60
2019-02-17T05:09:00.423Z,19.40
2019-02-17T05:11:29.252Z,16.20
2019-02-17T05:13:58.057Z,31.02
2019-02-17T05:16:26.910Z,21.37
2019-02-17T05:18:55.730Z,29.27
2019-02-17T05:21:24.533Z,25.13
2019-02-17T05:23:53.428Z,20.40
2019-02-17T05:26:22.221Z,21.10
2019-02-17T05:28:51.042Z,17.50
2019-02-17T05:31:19.845Z,20.55
2019-02-17T05:33:48.794Z,18.40
2019-02-17T05:36:17.771Z,26.70
2019-02-17T05:38:46.631Z,37.23
2019-02-17T05:41:15.447Z,21.50
2019-02-17T05:43:44.231Z,22.58
2019-02-17T05:46:13.028Z,19.13
2019-02-17T05:48:41.909Z,21.23
2019-02-17T05:51:10.735Z,16.73
2019-02-17T05:53:39.525Z,18.47
2019-02-17T05:56:08.344Z,25.97
2019-02-17T05:58:38.095Z,25.52
2019-02-17T06:01:07.488Z,24.17
2019-02-17T06:03:36.413Z,24.87
2019-02-17T06:06:05.290Z,21.57
2019-02-17T06:08:34.094Z,31.27
2019-02-17T06:11:02.909Z,27.97
2019-02-17T06:13:31.804Z,27.57
2019-02-17T06:16:00.592Z,31.82
2019-02-17T06:18:29.393Z,32.93
2019-02-17T06:20:58.383Z,23.77
2019-02-17T06:23:27.188Z,24.63
2019-02-17T06:25:55.989Z,24.32
2019-02-17T06:28:24.770Z,19.20
2019-02-17T06:30:53.561Z,24.10
2019-02-17T06:33:22.347Z,15.23
2019-02-17T06:35:51.279Z,18.73
2019-02-17T06:38:20.090Z,24.40
2019-02-17T06:40:48.874Z,15.20
2019-02-17T06:43:17.775Z,21.25
2019-02-17T06:45:46.573Z,19.07
2019-02-17T06:48:15.361Z,24.90
2019-02-17T06:50:44.233Z,21.75
2019-02-17T06:53:13.062Z,29.70
2019-02-17T06:55:56.454Z,23.30
2019-02-17T06:58:25.257Z,20.20
2019-02-17T07:00:56.118Z,25.40
2019-02-17T07:03:24.918Z,24.80
2019-02-17T07:06:12.670Z,24.95
2019-02-17T07:08:41.531Z,24.63
2019-02-17T07:11:11.229Z,24.30
2019-02-17T07:13:40.041Z,26.30
2019-02-17T07:16:08.818Z,19.77
2019-02-17T07:18:37.627Z,25.53
2019-02-17T07:21:06.413Z,29.42
2019-02-17T07:23:35.223Z,20.70
2019-02-17T07:26:04.030Z,26.03
2019-02-17T07:28:32.836Z,23.83
2019-02-17T07:31:01.619Z,24.83
2019-02-17T07:33:30.431Z,26.27
2019-02-17T07:35:59.290Z,23.37
2019-02-17T07:38:28.086Z,21.80
2019-02-17T07:40:56.950Z,26.17
2019-02-17T07:43:25.754Z,17.10
2019-02-17T07:45:54.536Z,21.20
2019-02-17T07:48:23.332Z,28.33
2019-02-17T07:50:52.409Z,13.10
2019-02-17T07:53:21.231Z,14.57
2019-02-17T07:55:50.018Z,15.53
2019-02-17T07:58:18.833Z,20.50
2019-02-17T08:00:47.630Z,29.40
2019-02-17T08:03:16.429Z,22.02
2019-02-17T08:05:45.230Z,16.70
2019-02-17T08:08:14.008Z,27.17
2019-02-17T08:10:42.805Z,22.77
2019-02-17T08:13:11.583Z,19.77
2019-02-17T08:15:40.387Z,19.70
2019-02-17T08:18:09.174Z,22.10
2019-02-17T08:20:37.955Z,26.70
2019-02-17T08:23:06.744Z,24.07
2019-02-17T08:25:35.543Z,28.38
2019-02-17T08:28:04.444Z,23.13
2019-02-17T08:30:33.319Z,24.90
2019-02-17T08:33:02.104Z,21.87
2019-02-17T08:35:30.986Z,26.67
2019-02-17T08:37:59.785Z,24.30
2019-02-17T08:40:28.581Z,26.90
2019-02-17T08:42:57.374Z,23.18
2019-02-17T08:45:26.250Z,18.53
2019-02-17T08:47:55.032Z,25.27
2019-02-17T08:50:23.844Z,21.48
2019-02-17T08:52:52.634Z,31.63
2019-02-17T08:55:21.427Z,22.47
2019-02-17T08:57:50.205Z,25.40
2019-02-17T09:00:19.086Z,23.27
2019-02-17T09:02:48.088Z,26.03
2019-02-17T09:05:17.016Z,21.93
2019-02-17T09:07:46.756Z,17.87
2019-02-17T09:10:15.713Z,24.47
2019-02-17T09:12:44.505Z,23.40
2019-02-17T09:15:13.472Z,23.57
2019-02-17T09:17:42.282Z,19.37
2019-02-17T09:20:11.503Z,22.20
2019-02-17T09:22:40.712Z,20.63
2019-02-17T09:25:10.567Z,19.33
2019-02-17T09:27:39.522Z,20.60
2019-02-17T09:30:11.906Z,17.67
2019-02-17T09:32:40.693Z,23.73
2019-02-17T09:35:09.614Z,24.73
2019-02-17T09:37:38.486Z,23.90
2019-02-17T09:40:09.291Z,26.77
2019-02-17T09:42:38.090Z,24.23
2019-02-17T09:45:07.935Z,24.80
2019-02-17T09:47:36.803Z,26.13
2019-02-17T09:50:06.667Z,20.20
2019-02-17T09:52:35.476Z,19.87
2019-02-17T09:55:04.350Z,19.57
2019-02-17T09:57:33.171Z,23.27
2019-02-17T10:00:01.966Z,28.30
2019-02-17T10:02:30.752Z,21.27
2019-02-17T10:04:59.602Z,25.30
2019-02-17T10:07:28.472Z,19.27
2019-02-17T10:09:57.277Z,23.00
2019-02-17T10:12:26.150Z,23.83
2019-02-17T10:14:54.941Z,22.77
2019-02-17T10:17:23.727Z,15.95
2019-02-17T10:19:52.697Z,18.43
2019-02-17T10:22:21.493Z,22.43
2019-02-17T10:24:50.265Z,23.33
2019-02-17T10:27:19.076Z,18.70
2019-02-17T10:29:48.820Z,23.12
2019-02-17T10:32:17.615Z,15.23
2019-02-17T10:34:46.385Z,23.30
2019-02-17T10:37:15.176Z,19.87
2019-02-17T10:39:44.299Z,17.77
2019-02-17T10:42:13.168Z,18.90
2019-02-17T10:44:41.984Z,22.98
2019-02-17T10:47:10.794Z,18.30
2019-02-17T10:49:39.644Z,19.70
2019-02-17T10:52:08.594Z,16.77
2019-02-17T10:54:37.382Z,19.53
2019-02-17T10:57:06.332Z,16.30
2019-02-17T10:59:35.139Z,22.10
2019-02-17T11:02:04.004Z,19.17
2019-02-17T11:04:32.790Z,23.03
2019-02-17T11:07:01.682Z,20.23
2019-02-17T11:09:30.542Z,15.57
2019-02-17T11:11:59.329Z,15.30
2019-02-17T11:14:28.198Z,15.60
2019-02-17T11:16:56.994Z,20.17
2019-02-17T11:19:25.780Z,17.47
2019-02-17T11:21:54.567Z,16.87
2019-02-17T11:24:23.443Z,19.50
2019-02-17T11:26:52.295Z,14.90
2019-02-17T11:29:21.345Z,26.12
2019-02-17T11:31:50.492Z,18.75
2019-02-17T11:34:19.283Z,18.57
2019-02-17T11:36:48.070Z,20.97
2019-02-17T11:39:20.930Z,19.47
2019-02-17T11:41:50.726Z,17.77
2019-02-17T11:44:19.541Z,15.20
2019-02-17T11:46:48.413Z,21.07
2019-02-17T11:49:17.213Z,20.67
2019-02-17T11:51:45.996Z,17.07
2019-02-17T11:54:14.860Z,17.50
2019-02-17T11:56:43.715Z,16.27
2019-02-17T11:59:12.509Z,16.30
2019-02-17T12:01:41.365Z,18.77
2019-02-17T12:04:10.156Z,20.80
2019-02-17T12:06:39.020Z,17.03
2019-02-17T12:09:09.147Z,15.57
2019-02-17T12:11:38.035Z,18.13
2019-02-17T12:14:06.912Z,15.87
2019-02-17T12:16:37.230Z,15.50
2019-02-17T12:19:08.896Z,15.30
2019-02-17T12:21:55.437Z,15.88
2019-02-17T12:24:43.368Z,16.83
2019-02-17T12:27:19.985Z,16.80
2019-02-17T12:29:55.609Z,14.17
2019-02-17T12:32:29.282Z,14.00
2019-02-17T12:34:58.094Z,12.95
2019-02-17T12:37:26.933Z,16.30
2019-02-17T12:39:55.722Z,13.53
2019-02-17T12:42:24.635Z,13.67
2019-02-17T12:44:53.433Z,13.62
2019-02-17T12:47:22.600Z,18.60
2019-02-17T12:49:51.390Z,13.90
2019-02-17T12:52:21.348Z,16.63
2019-02-17T12:54:50.135Z,16.20
2019-02-17T12:57:18.927Z,15.77
2019-02-17T12:59:47.720Z,14.70
2019-02-17T13:02:16.503Z,10.30
2019-02-17T13:04:45.291Z,12.20
2019-02-17T13:07:14.158Z,14.70
2019-02-17T13:09:42.989Z,12.37
2019-02-17T13:12:11.771Z,15.77
2019-02-17T13:14:40.566Z,10.00
2019-02-17T13:17:09.359Z,13.13
2019-02-17T13:19:38.295Z,18.57
2019-02-17T13:22:07.082Z,11.13
2019-02-17T13:24:35.875Z,11.60
2019-02-17T13:27:04.746Z,12.93
2019-02-17T13:29:33.576Z,11.90
2019-02-17T13:32:02.374Z,14.30
2019-02-17T13:34:31.242Z,11.13
2019-02-17T13:37:00.063Z,14.90
2019-02-17T13:39:30.476Z,12.17
2019-02-17T13:41:59.232Z,12.03
2019-02-17T13:44:28.134Z,10.73
2019-02-17T13:46:56.982Z,8.43
2019-02-17T13:49:25.781Z,11.67
2019-02-17T13:51:54.788Z,9.43
2019-02-17T13:54:23.664Z,12.43
2019-02-17T13:56:52.446Z,11.00
2019-02-17T13:59:21.305Z,11.80
2019-02-17T14:01:50.224Z,10.70
2019-02-17T14:04:19.057Z,9.93
2019-02-17T14:06:47.947Z,13.37
2019-02-17T14:09:16.744Z,11.60
2019-02-17T14:11:45.532Z,14.00
2019-02-17T14:14:14.394Z,12.10
2019-02-17T14:16:43.179Z,10.70
2019-02-17T14:19:11.991Z,13.40
2019-02-17T14:21:40.790Z,10.13
2019-02-17T14:24:09.698Z,13.00
2019-02-17T14:26:38.519Z,17.83
2019-02-17T14:29:07.302Z,18.13
2019-02-17T14:31:36.167Z,10.47
2019-02-17T14:34:05.142Z,12.50
2019-02-17T14:36:34.007Z,12.30
2019-02-17T14:39:03.016Z,14.13
2019-02-17T14:41:31.803Z,15.10
2019-02-17T14:44:00.593Z,15.07
2019-02-17T14:46:29.377Z,11.97
2019-02-17T14:48:58.174Z,14.37
2019-02-17T14:51:26.958Z,15.30
2019-02-17T14:53:56.768Z,15.10
2019-02-17T14:56:25.554Z,15.30
2019-02-17T14:58:54.331Z,19.50
2019-02-17T15:01:23.109Z,13.73
2019-02-17T15:03:51.897Z,16.70
2019-02-17T15:06:20.693Z,15.03
2019-02-17T15:08:49.465Z,16.33
2019-02-17T15:11:18.285Z,18.30
2019-02-17T15:13:47.076Z,14.43
2019-02-17T15:16:15.872Z,14.07
2019-02-17T15:18:44.725Z,11.83
2019-02-17T15:21:13.541Z,14.40
2019-02-17T15:23:42.344Z,9.97
2019-02-17T15:26:11.214Z,12.13
2019-02-17T15:28:40.109Z,12.37
2019-02-17T15:31:08.983Z,11.83
2019-02-17T15:33:37.844Z,13.93
2019-02-17T15:36:06.630Z,15.45
2019-02-17T15:38:35.608Z,14.13
2019-02-17T15:41:04.770Z,10.60
2019-02-17T15:43:33.670Z,13.10
2019-02-17T15:46:02.673Z,15.18
2019-02-17T15:48:31.576Z,9.97
2019-02-17T15:51:06.449Z,10.28
2019-02-17T15:53:31.161Z,12.97
2019-02-17T15:55:59.998Z,14.40
2019-02-17T15:58:28.872Z,12.07
2019-02-17T16:00:57.790Z,14.27
2019-02-17T16:03:26.579Z,14.30
2019-02-17T16:05:55.454Z,14.27
2019-02-17T16:08:24.330Z,11.57
2019-02-17T16:10:53.268Z,11.70
2019-02-17T16:13:22.043Z,13.30
2019-02-17T16:15:50.836Z,11.50
2019-02-17T16:18:19.610Z,14.30
2019-02-17T16:20:48.405Z,12.00
2019-02-17T16:23:17.180Z,16.80
2019-02-17T16:25:46.047Z,11.20
2019-02-17T16:28:14.833Z,12.20
2019-02-17T16:30:43.713Z,14.53
2019-02-17T16:33:12.502Z,11.80
2019-02-17T16:35:41.326Z,12.13
2019-02-17T16:38:10.098Z,8.93
2019-02-17T16:40:38.887Z,9.10
2019-02-17T16:43:07.746Z,13.30
2019-02-17T16:45:36.537Z,10.20
2019-02-17T16:48:05.388Z,9.13
2019-02-17T16:50:34.334Z,13.60
2019-02-17T16:53:03.204Z,10.27
2019-02-17T16:55:32.018Z,9.20
2019-02-17T16:58:01.142Z,9.13
2019-02-17T17:00:30.490Z,9.70
2019-02-17T17:02:59.301Z,13.37
2019-02-17T17:05:28.235Z,10.38
2019-02-17T17:07:57.117Z,14.90
2019-02-17T17:10:25.985Z,7.27
2019-02-17T17:12:54.782Z,8.47
2019-02-17T17:15:23.633Z,10.00
2019-02-17T17:17:52.499Z,15.57
2019-02-17T17:20:21.410Z,12.63
2019-02-17T17:22:50.276Z,9.50
2019-02-17T17:25:19.822Z,11.80
2019-02-17T17:27:48.620Z,12.30
2019-02-17T17:30:17.574Z,11.47
2019-02-17T17:32:46.525Z,18.10
2019-02-17T17:35:15.483Z,14.73
2019-02-17T17:37:44.322Z,12.40
2019-02-17T17:40:13.218Z,21.70
2019-02-17T17:42:42.096Z,17.20
2019-02-17T17:45:12.662Z,17.40
2019-02-17T17:47:41.448Z,20.20
2019-02-17T17:50:11.795Z,21.40
2019-02-17T17:52:40.626Z,30.60
2019-02-17T17:55:10.736Z,47.77
2019-02-17T17:57:39.545Z,38.13
2019-02-17T18:00:10.088Z,29.87
2019-02-17T18:02:38.951Z,24.87
2019-02-17T18:05:09.578Z,20.37
2019-02-17T18:07:38.536Z,22.93
2019-02-17T18:10:08.918Z,19.30
2019-02-17T18:12:37.759Z,30.15
2019-02-17T18:15:07.625Z,20.93
2019-02-17T18:17:36.558Z,21.90
2019-02-17T18:20:05.772Z,27.00
2019-02-17T18:22:34.634Z,22.40
2019-02-17T18:25:04.545Z,18.75
2019-02-17T18:27:33.419Z,17.87
2019-02-17T18:30:02.348Z,21.25
2019-02-17T18:32:31.160Z,20.23
2019-02-17T18:34:59.934Z,23.23
2019-02-17T18:37:28.719Z,18.97
2019-02-17T18:39:57.509Z,20.97
2019-02-17T18:42:26.297Z,20.97
2019-02-17T18:44:55.063Z,10.13
2019-02-17T18:47:23.878Z,16.47
2019-02-17T18:49:52.669Z,15.63
2019-02-17T18:52:21.455Z,21.70
2019-02-17T18:54:50.250Z,11.90
2019-02-17T18:57:19.393Z,17.00
2019-02-17T18:59:48.174Z,23.43
2019-02-17T19:02:16.957Z,16.87
2019-02-17T19:04:45.747Z,16.30
2019-02-17T19:07:14.600Z,13.10
2019-02-17T19:09:43.398Z,11.53
2019-02-17T19:12:12.166Z,16.80
2019-02-17T19:14:40.955Z,18.90
2019-02-17T19:17:09.807Z,16.20
2019-02-17T19:19:38.599Z,13.90
2019-02-17T19:22:07.676Z,17.10
2019-02-17T19:24:37.097Z,22.48
2019-02-17T19:27:09.668Z,14.33
2019-02-17T19:29:38.528Z,17.40
2019-02-17T19:32:07.392Z,14.10
2019-02-17T19:34:37.087Z,18.15
2019-02-17T19:37:05.892Z,15.80
2019-02-17T19:39:34.714Z,16.90
2019-02-17T19:42:03.597Z,15.73
2019-02-17T19:44:32.432Z,16.37
2019-02-17T19:47:01.276Z,15.43
2019-02-17T19:49:33.647Z,17.67
2019-02-17T19:52:02.290Z,17.73
2019-02-17T19:54:31.095Z,18.90
2019-02-17T19:57:00.048Z,16.35
2019-02-17T19:59:31.163Z,20.72
2019-02-17T20:01:59.326Z,20.20
2019-02-17T20:04:38.444Z,15.98
2019-02-17T20:07:07.335Z,21.90
2019-02-17T20:09:36.127Z,34.33
2019-02-17T20:12:05.012Z,25.47
2019-02-17T20:14:33.870Z,28.50
2019-02-17T20:17:02.721Z,28.23
2019-02-17T20:19:31.609Z,28.00
2019-02-17T20:22:00.548Z,31.80
2019-02-17T20:24:29.434Z,38.10
2019-02-17T20:26:58.228Z,26.63
2019-02-17T20:29:27.079Z,35.65
2019-02-17T20:31:55.862Z,34.17
2019-02-17T20:34:24.750Z,41.17
2019-02-17T20:36:53.526Z,47.10
2019-02-17T20:39:22.392Z,33.40
2019-02-17T20:41:51.213Z,30.37
2019-02-17T20:44:20.047Z,24.07
2019-02-17T20:46:48.886Z,18.53
2019-02-17T20:49:17.699Z,20.90
2019-02-17T20:51:46.500Z,19.37
2019-02-17T20:54:15.293Z,23.70
2019-02-17T20:56:44.144Z,21.40
2019-02-17T20:59:12.994Z,17.67
2019-02-17T21:01:41.839Z,17.67
2019-02-17T21:04:10.758Z,25.77
2019-02-17T21:06:39.606Z,24.25
2019-02-17T21:09:08.583Z,28.03
2019-02-17T21:11:37.386Z,23.37
2019-02-17T21:14:06.246Z,29.70
2019-02-17T21:16:35.177Z,22.62
2019-02-17T21:19:04.049Z,31.83
2019-02-17T21:21:32.863Z,28.77
2019-02-17T21:24:01.715Z,27.40
2019-02-17T21:26:30.506Z,30.23
2019-02-17T21:28:59.289Z,23.40
2019-02-17T21:31:28.148Z,28.00
2019-02-17T21:33:56.920Z,25.60
2019-02-17T21:36:25.706Z,25.97
2019-02-17T21:38:54.494Z,20.97
2019-02-17T21:41:23.364Z,23.35
2019-02-17T21:43:52.148Z,21.33
2019-02-17T21:46:21.041Z,28.20
2019-02-17T21:48:49.825Z,24.67
2019-02-17T21:51:18.623Z,24.60
2019-02-17T21:53:47.409Z,24.83
2019-02-17T21:56:16.198Z,25.73
2019-02-17T21:58:44.974Z,18.52
2019-02-17T22:02:42.181Z,19.57
2019-02-17T22:05:11.127Z,30.23
2019-02-17T22:07:40.012Z,27.77
2019-02-17T22:10:09.873Z,26.83
2019-02-17T22:12:38.882Z,20.70
2019-02-17T22:15:10.021Z,25.70
2019-02-17T22:17:38.794Z,36.42
2019-02-17T22:20:08.417Z,31.03
2019-02-17T22:22:37.362Z,24.87
2019-02-17T22:25:06.707Z,21.35
2019-02-17T22:27:35.591Z,32.60
2019-02-17T22:30:05.268Z,27.45
2019-02-17T22:32:34.120Z,27.70
2019-02-17T22:35:03.222Z,27.87
2019-02-17T22:37:32.016Z,21.75
2019-02-17T22:40:00.803Z,25.63
2019-02-17T22:42:29.599Z,23.97
2019-02-17T22:44:58.367Z,35.33
2019-02-17T22:47:27.166Z,22.10
2019-02-17T22:49:55.955Z,29.60
2019-02-17T22:52:24.745Z,25.33
2019-02-17T22:54:53.536Z,22.60
2019-02-17T22:57:22.383Z,21.30
2019-02-17T22:59:51.231Z,20.40
2019-02-17T23:02:20.225Z,23.70
2019-02-17T23:04:49.009Z,23.57
2019-02-17T23:07:18.295Z,21.57
2019-02-17T23:09:47.095Z,17.97
2019-02-17T23:12:16.731Z,25.32
2019-02-17T23:14:45.550Z,18.95
2019-02-17T23:17:14.435Z,23.47
2019-02-17T23:19:43.232Z,21.00
2019-02-17T23:22:11.994Z,26.80
2019-02-17T23:24:40.919Z,17.70
2019-02-17T23:27:09.794Z,17.12
2019-02-17T23:29:38.569Z,18.63
2019-02-17T23:32:07.514Z,17.80
2019-02-17T23:34:36.301Z,20.60
2019-02-17T23:37:05.674Z,17.90
2019-02-17T23:39:34.514Z,20.23
2019-02-17T23:42:03.302Z,17.25
2019-02-17T23:44:32.293Z,15.90
2019-02-17T23:47:01.163Z,23.07
2019-02-17T23:49:31.121Z,18.77
2019-02-17T23:51:59.987Z,22.90
2019-02-17T23:54:28.861Z,16.30
2019-02-17T23:56:57.658Z,21.83
2019-02-17T23:59:26.434Z,23.07
